Time;durP1;ratioP1;P1;durP2;ratioP2;P2;SDS_P1;SDS_P2;PMS_P1;PMS_P2;Temp;Humidity;BMP_temperature;BMP_pressure;BME280_temperature;BME280_humidity;BME280_pressure;Samples;Min_cycle;Max_cycle;Signal;HPM_P1;HPM_P2
2021/03/12 00:00:36;;;;;;;1.35;0.90;;;10.90;76.00;;;;;;5115948;27;20047;-51
2021/03/12 00:03:03;;;;;;;1.25;0.60;;;10.90;76.00;;;;;;5128658;27;20051;-47
2021/03/12 00:05:28;;;;;;;1.73;1.08;;;10.90;76.00;;;;;;5115572;27;20329;-43
2021/03/12 00:07:54;;;;;;;1.40;0.70;;;10.90;76.00;;;;;;5114367;27;20062;-44
2021/03/12 00:10:24;;;;;;;1.45;0.90;;;10.90;76.00;;;;;;5119305;27;20042;-40
2021/03/12 00:12:51;;;;;;;4.10;0.90;;;10.90;76.10;;;;;;5119329;27;20051;-48
2021/03/12 00:15:19;;;;;;;1.20;0.75;;;10.90;76.00;;;;;;5116787;27;20043;-49
2021/03/12 00:17:48;;;;;;;3.50;1.63;;;10.90;76.00;;;;;;5133163;27;20057;-40
2021/03/12 00:20:17;;;;;;;1.17;0.70;;;10.90;76.00;;;;;;5135294;27;20046;-42
2021/03/12 00:22:44;;;;;;;1.50;0.73;;;10.90;76.00;;;;;;5121558;27;20047;-40
2021/03/12 00:25:13;;;;;;;2.40;0.60;;;10.90;76.00;;;;;;5118613;27;20871;-42
2021/03/12 00:27:39;;;;;;;1.35;0.70;;;10.90;76.00;;;;;;5124484;27;21015;-40
2021/03/12 00:30:07;;;;;;;1.88;0.60;;;10.90;76.00;;;;;;5121721;27;20049;-39
2021/03/12 00:32:34;;;;;;;2.38;0.90;;;10.90;76.00;;;;;;5130018;27;20074;-42
2021/03/12 00:35:00;;;;;;;1.38;0.80;;;11.00;76.10;;;;;;5115049;27;20131;-42
2021/03/12 00:37:26;;;;;;;2.03;1.15;;;10.90;76.10;;;;;;5112225;27;20542;-40
2021/03/12 00:39:52;;;;;;;2.08;0.75;;;10.90;76.00;;;;;;5115631;28;20078;-44
2021/03/12 00:42:18;;;;;;;3.05;1.08;;;10.90;76.10;;;;;;5115326;28;20066;-42
2021/03/12 00:44:44;;;;;;;1.20;0.80;;;10.90;76.10;;;;;;5123294;27;20043;-42
2021/03/12 00:47:09;;;;;;;1.48;0.70;;;10.90;76.10;;;;;;5120032;27;20092;-42
2021/03/12 00:49:35;;;;;;;1.52;0.90;;;10.90;76.10;;;;;;5135482;27;20053;-42
2021/03/12 00:52:01;;;;;;;3.17;0.73;;;10.90;76.10;;;;;;5125197;27;20142;-41
2021/03/12 00:54:28;;;;;;;1.23;0.57;;;10.90;76.10;;;;;;5118894;27;20071;-41
2021/03/12 00:56:53;;;;;;;1.30;0.80;;;10.90;76.10;;;;;;5114710;28;20094;-44
2021/03/12 00:59:19;;;;;;;2.20;0.82;;;10.90;76.10;;;;;;5114456;28;20055;-43
2021/03/12 01:01:45;;;;;;;2.00;0.90;;;10.90;76.10;;;;;;5116367;27;20047;-41
2021/03/12 01:04:11;;;;;;;1.42;0.70;;;10.90;76.10;;;;;;5115832;27;20047;-43
2021/03/12 01:06:36;;;;;;;2.63;0.98;;;10.90;76.10;;;;;;5114491;28;20130;-42
2021/03/12 01:09:04;;;;;;;3.97;1.02;;;10.90;76.10;;;;;;5118138;27;20051;-42
2021/03/12 01:11:29;;;;;;;1.58;0.95;;;10.90;76.10;;;;;;5114604;28;20392;-42
2021/03/12 01:13:55;;;;;;;1.10;0.82;;;10.90;76.10;;;;;;5121376;27;20051;-42
2021/03/12 01:16:21;;;;;;;2.47;1.45;;;10.90;76.10;;;;;;5130272;27;20051;-41
2021/03/12 01:18:47;;;;;;;1.25;0.60;;;10.90;76.10;;;;;;5128267;27;20039;-42
2021/03/12 01:21:13;;;;;;;1.30;0.65;;;10.90;76.10;;;;;;5117780;27;20043;-42
2021/03/12 01:23:39;;;;;;;0.73;0.60;;;10.80;76.10;;;;;;5123933;27;20057;-41
2021/03/12 01:26:05;;;;;;;2.58;1.00;;;10.90;76.10;;;;;;5126861;27;20086;-40
2021/03/12 01:28:31;;;;;;;3.13;0.70;;;10.90;76.10;;;;;;5119385;27;20075;-44
2021/03/12 01:30:57;;;;;;;2.63;0.88;;;10.90;76.10;;;;;;5123238;27;20088;-42
2021/03/12 01:33:22;;;;;;;2.28;1.05;;;10.90;76.10;;;;;;5120455;27;20052;-41
2021/03/12 01:35:48;;;;;;;1.20;0.68;;;10.90;76.10;;;;;;5116360;27;20763;-42
2021/03/12 01:38:14;;;;;;;3.33;1.02;;;10.90;76.10;;;;;;5124533;27;20050;-43
2021/03/12 01:40:44;;;;;;;4.43;1.30;;;10.90;76.10;;;;;;5133730;27;20557;-42
2021/03/12 01:43:10;;;;;;;2.20;0.95;;;10.90;76.20;;;;;;5134599;27;20050;-44
2021/03/12 01:45:44;;;;;;;3.45;1.00;;;10.90;76.10;;;;;;5127119;27;20074;-47
2021/03/12 01:48:17;;;;;;;2.28;0.90;;;10.90;76.20;;;;;;5115863;27;20043;-40
2021/03/12 01:50:47;;;;;;;2.90;1.13;;;10.90;76.10;;;;;;5113506;27;20043;-43
2021/03/12 01:53:15;;;;;;;1.73;0.80;;;11.00;76.20;;;;;;5113414;27;20039;-42
2021/03/12 01:55:42;;;;;;;2.33;0.80;;;10.90;76.10;;;;;;5127207;27;20100;-48
2021/03/12 01:58:07;;;;;;;2.30;1.05;;;10.90;76.10;;;;;;5113917;27;20062;-42
2021/03/12 02:00:34;;;;;;;1.45;0.95;;;10.90;76.20;;;;;;5129199;27;20047;-43
2021/03/12 02:03:01;;;;;;;2.28;0.80;;;10.90;76.10;;;;;;5117903;27;20047;-41
2021/03/12 02:05:27;;;;;;;2.53;1.00;;;10.90;76.10;;;;;;5113640;27;20047;-48
2021/03/12 02:07:53;;;;;;;1.20;0.95;;;10.90;76.10;;;;;;5124901;27;20543;-45
2021/03/12 02:10:25;;;;;;;0.88;0.65;;;10.90;76.10;;;;;;5130109;27;20054;-44
2021/03/12 02:12:57;;;;;;;1.55;1.13;;;10.90;76.10;;;;;;5126136;27;20035;-42
2021/03/12 02:15:29;;;;;;;2.80;1.08;;;10.90;76.10;;;;;;5126210;27;20039;-44
2021/03/12 02:18:13;;;;;;;2.58;1.00;;;10.90;76.20;;;;;;5125730;27;20043;-50
2021/03/12 02:20:49;;;;;;;0.95;0.60;;;10.90;76.10;;;;;;5122243;27;20059;-41
2021/03/12 02:23:32;;;;;;;2.40;0.93;;;10.90;76.10;;;;;;5127988;27;20035;-46
2021/03/12 02:26:32;;;;;;;2.40;0.85;;;10.90;76.20;;;;;;5120884;27;20108;-44
2021/03/12 02:29:01;;;;;;;1.05;0.70;;;10.90;76.10;;;;;;5051916;28;20052;-49
2021/03/12 02:31:28;;;;;;;2.65;1.13;;;10.90;76.20;;;;;;5060872;28;20051;-51
2021/03/12 02:34:04;;;;;;;2.83;1.13;;;10.90;76.10;;;;;;5069499;28;20170;-51
2021/03/12 02:36:34;;;;;;;3.20;1.05;;;10.90;76.10;;;;;;5070617;28;20048;-41
2021/03/12 02:39:01;;;;;;;2.75;1.40;;;10.90;76.10;;;;;;5069349;28;20064;-42
2021/03/12 02:41:29;;;;;;;1.55;0.90;;;10.90;76.10;;;;;;5058530;28;20045;-42
2021/03/12 02:43:56;;;;;;;4.03;0.85;;;10.90;76.10;;;;;;5070403;28;20144;-44
2021/03/12 02:46:24;;;;;;;2.38;0.77;;;10.80;76.10;;;;;;5058364;28;20127;-41
2021/03/12 02:48:52;;;;;;;2.08;1.00;;;10.90;76.20;;;;;;5061244;28;20062;-41
2021/03/12 02:51:19;;;;;;;1.77;1.00;;;10.90;76.20;;;;;;5070496;28;20076;-42
2021/03/12 02:53:47;;;;;;;2.53;0.70;;;10.90;76.20;;;;;;5070222;28;20044;-42
2021/03/12 02:56:13;;;;;;;2.85;1.02;;;10.90;76.10;;;;;;5051478;28;20468;-42
2021/03/12 02:58:42;;;;;;;1.50;0.70;;;10.90;76.20;;;;;;5053935;28;20240;-46
2021/03/12 03:01:08;;;;;;;2.05;0.95;;;10.90;76.10;;;;;;5054445;28;20060;-47
2021/03/12 03:03:35;;;;;;;1.25;1.05;;;10.90;76.20;;;;;;5054329;28;20048;-40
2021/03/12 03:06:03;;;;;;;1.95;1.02;;;10.90;76.20;;;;;;5118135;27;20120;-41
2021/03/12 03:08:31;;;;;;;2.33;1.15;;;10.90;76.20;;;;;;5116789;28;20523;-42
2021/03/12 03:11:02;;;;;;;2.15;0.80;;;11.00;76.20;;;;;;5117389;27;20043;-42
2021/03/12 03:13:35;;;;;;;1.10;0.73;;;10.90;76.20;;;;;;5116678;28;20057;-45
2021/03/12 03:16:03;;;;;;;1.73;0.80;;;11.00;76.20;;;;;;5134510;27;20402;-43
2021/03/12 03:18:32;;;;;;;2.50;1.00;;;10.90;76.20;;;;;;5137364;27;20300;-45
2021/03/12 03:21:00;;;;;;;1.33;0.85;;;10.90;76.20;;;;;;5125577;27;20044;-42
2021/03/12 03:23:28;;;;;;;2.05;1.10;;;10.80;76.10;;;;;;5129695;27;20040;-42
2021/03/12 03:25:54;;;;;;;2.25;1.00;;;11.00;76.20;;;;;;5137200;27;20054;-40
2021/03/12 03:28:21;;;;;;;2.42;1.30;;;10.90;76.20;;;;;;5123652;27;20039;-43
2021/03/12 03:30:47;;;;;;;1.70;0.73;;;10.90;76.10;;;;;;5136757;27;20106;-44
2021/03/12 03:33:13;;;;;;;2.13;0.80;;;10.90;76.20;;;;;;5133467;27;20043;-42
2021/03/12 03:35:39;;;;;;;1.80;0.80;;;10.90;76.10;;;;;;5118319;27;20054;-43
2021/03/12 03:38:05;;;;;;;1.20;1.00;;;11.00;76.20;;;;;;5135274;27;20054;-45
2021/03/12 03:40:30;;;;;;;2.53;0.98;;;10.90;76.10;;;;;;5136946;27;20047;-42
2021/03/12 03:43:00;;;;;;;2.58;0.90;;;10.90;76.20;;;;;;5136590;27;20047;-44
2021/03/12 03:45:30;;;;;;;2.58;0.90;;;10.90;76.10;;;;;;5123460;27;20547;-41
2021/03/12 03:47:57;;;;;;;2.70;0.95;;;11.00;76.20;;;;;;5117416;27;20518;-42
2021/03/12 03:50:24;;;;;;;2.30;0.95;;;10.90;76.10;;;;;;5116225;28;20042;-44
2021/03/12 03:52:51;;;;;;;2.13;1.15;;;10.90;76.10;;;;;;5129117;27;20049;-49
2021/03/12 03:55:23;;;;;;;3.83;0.80;;;10.90;76.10;;;;;;5128190;27;20071;-42
2021/03/12 03:57:50;;;;;;;3.25;1.00;;;11.00;76.20;;;;;;5116130;27;20128;-41
2021/03/12 04:00:17;;;;;;;1.80;1.00;;;10.90;76.20;;;;;;5134376;27;20487;-42
2021/03/12 04:02:44;;;;;;;2.20;1.02;;;10.90;76.10;;;;;;5136648;27;20039;-42
2021/03/12 04:05:11;;;;;;;3.22;1.27;;;10.90;76.10;;;;;;5136248;27;20047;-45
2021/03/12 04:07:40;;;;;;;1.20;0.80;;;10.90;76.10;;;;;;5131921;27;20147;-46
2021/03/12 04:10:07;;;;;;;2.28;1.10;;;10.90;76.10;;;;;;5116325;27;20059;-45
2021/03/12 04:12:34;;;;;;;2.17;0.90;;;10.90;76.10;;;;;;5116082;28;20043;-42
2021/03/12 04:15:01;;;;;;;1.85;1.00;;;10.90;76.10;;;;;;5127945;27;20047;-46
2021/03/12 04:17:27;;;;;;;2.35;1.02;;;10.90;76.20;;;;;;5133784;27;20096;-44
2021/03/12 04:19:54;;;;;;;2.03;0.73;;;11.00;76.20;;;;;;5116757;27;20048;-42
2021/03/12 04:22:20;;;;;;;2.08;1.00;;;10.90;76.10;;;;;;5122280;27;20045;-43
2021/03/12 04:24:46;;;;;;;1.70;0.93;;;10.90;76.10;;;;;;5129305;27;20051;-42
2021/03/12 04:27:13;;;;;;;2.53;1.15;;;11.00;76.20;;;;;;5119280;27;20381;-44
2021/03/12 04:29:39;;;;;;;3.42;1.05;;;11.00;76.20;;;;;;5123267;27;20045;-41
2021/03/12 04:32:06;;;;;;;2.33;0.70;;;11.00;76.20;;;;;;5127536;27;20051;-42
2021/03/12 04:34:32;;;;;;;3.08;1.13;;;11.00;76.20;;;;;;5135121;27;20069;-44
2021/03/12 04:36:58;;;;;;;2.15;1.02;;;11.00;76.20;;;;;;5129927;27;20055;-42
2021/03/12 04:39:24;;;;;;;2.30;0.80;;;10.90;76.10;;;;;;5135423;27;20066;-44
2021/03/12 04:41:50;;;;;;;1.48;1.00;;;10.90;76.10;;;;;;5125880;27;20048;-43
2021/03/12 04:44:16;;;;;;;2.50;0.80;;;11.00;76.20;;;;;;5115177;27;20048;-46
2021/03/12 04:46:42;;;;;;;2.08;0.95;;;11.00;76.20;;;;;;5115003;28;20415;-43
2021/03/12 04:49:10;;;;;;;1.80;0.70;;;10.90;76.10;;;;;;5132624;27;20047;-42
2021/03/12 04:51:37;;;;;;;3.13;1.00;;;11.00;76.20;;;;;;5133731;27;20487;-44
2021/03/12 04:54:09;;;;;;;2.20;0.80;;;11.00;76.10;;;;;;5125951;27;20047;-46
2021/03/12 04:56:36;;;;;;;2.28;1.25;;;11.00;76.20;;;;;;5135758;27;20137;-45
2021/03/12 04:59:05;;;;;;;2.53;0.90;;;11.00;76.10;;;;;;5133866;27;20047;-44
2021/03/12 05:01:34;;;;;;;2.05;0.88;;;10.90;76.10;;;;;;5113906;27;20715;-41
2021/03/12 05:04:06;;;;;;;2.17;0.80;;;10.90;76.10;;;;;;5125158;27;20052;-43
2021/03/12 05:06:32;;;;;;;3.00;0.95;;;10.90;76.10;;;;;;5114272;28;20134;-48
2021/03/12 05:08:59;;;;;;;2.03;0.75;;;10.90;76.10;;;;;;5115139;27;20128;-46
2021/03/12 05:11:25;;;;;;;2.63;0.90;;;11.00;76.20;;;;;;5131119;27;20046;-46
2021/03/12 05:13:51;;;;;;;2.25;0.93;;;11.00;76.10;;;;;;5130778;27;20487;-48
2021/03/12 05:16:18;;;;;;;1.35;0.77;;;10.90;76.10;;;;;;5134668;27;20134;-45
2021/03/12 05:18:43;;;;;;;2.60;0.95;;;11.00;76.20;;;;;;5114819;27;20054;-42
2021/03/12 05:21:09;;;;;;;2.38;0.80;;;10.90;76.10;;;;;;5133946;27;20055;-49
2021/03/12 05:23:35;;;;;;;3.78;1.27;;;10.90;76.10;;;;;;5122701;27;20126;-42
2021/03/12 05:26:02;;;;;;;2.55;0.80;;;10.90;76.10;;;;;;5108268;27;20475;-48
2021/03/12 05:28:27;;;;;;;1.42;0.77;;;10.90;76.10;;;;;;5122210;27;20456;-43
2021/03/12 05:30:53;;;;;;;2.25;0.77;;;10.90;76.10;;;;;;5129735;27;20074;-40
2021/03/12 05:33:19;;;;;;;1.98;1.13;;;10.90;76.10;;;;;;5131731;27;20428;-41
2021/03/12 05:35:45;;;;;;;1.65;0.90;;;10.90;76.10;;;;;;5114765;27;20040;-42
2021/03/12 05:38:10;;;;;;;1.95;0.80;;;10.90;76.10;;;;;;5114149;28;20384;-44
2021/03/12 05:40:36;;;;;;;1.80;0.75;;;10.90;76.10;;;;;;5114023;27;20048;-42
2021/03/12 05:43:03;;;;;;;1.08;0.70;;;10.90;76.10;;;;;;5122584;27;20047;-42
2021/03/12 05:45:29;;;;;;;2.20;1.08;;;10.90;76.10;;;;;;5132101;27;20104;-45
2021/03/12 05:47:55;;;;;;;2.70;1.13;;;10.90;76.10;;;;;;5132795;27;20047;-41
2021/03/12 05:50:21;;;;;;;3.33;1.27;;;10.80;76.10;;;;;;5122424;27;20372;-47
2021/03/12 05:52:48;;;;;;;1.45;0.82;;;10.90;76.10;;;;;;5122197;27;20047;-43
2021/03/12 05:55:15;;;;;;;1.75;0.70;;;10.90;76.10;;;;;;5125421;27;20040;-44
2021/03/12 05:57:42;;;;;;;3.13;0.77;;;10.90;76.10;;;;;;5134355;27;20090;-42
2021/03/12 06:00:08;;;;;;;1.80;0.75;;;10.90;76.10;;;;;;5133881;27;20039;-39
2021/03/12 06:02:34;;;;;;;2.15;0.75;;;10.90;76.10;;;;;;5134373;27;20050;-46
2021/03/12 06:05:00;;;;;;;1.08;0.70;;;10.90;76.10;;;;;;5122775;27;20043;-50
2021/03/12 06:07:26;;;;;;;3.03;0.85;;;10.90;76.10;;;;;;5123896;27;20081;-51
2021/03/12 06:09:51;;;;;;;2.55;0.85;;;10.90;76.10;;;;;;5118400;27;20048;-45
2021/03/12 06:12:17;;;;;;;1.70;0.80;;;11.00;76.10;;;;;;5113632;28;20047;-50
2021/03/12 06:14:55;;;;;;;2.33;0.73;;;10.90;76.10;;;;;;5112412;27;20082;-45
2021/03/12 06:17:43;;;;;;;1.50;1.05;;;11.00;76.10;;;;;;5122461;27;20039;-51
2021/03/12 06:20:10;;;;;;;1.98;0.95;;;10.90;76.10;;;;;;5133773;27;20082;-44
2021/03/12 06:22:45;;;;;;;1.48;0.80;;;10.90;76.10;;;;;;5134147;27;20099;-54
2021/03/12 06:25:14;;;;;;;2.72;0.60;;;10.90;76.10;;;;;;5124716;27;20044;-42
2021/03/12 06:27:40;;;;;;;0.85;0.80;;;10.90;76.00;;;;;;5113100;27;20051;-41
2021/03/12 06:30:07;;;;;;;2.17;1.10;;;11.00;76.10;;;;;;5134147;27;20075;-47
2021/03/12 06:32:47;;;;;;;2.08;0.90;;;10.90;76.10;;;;;;5133529;27;20441;-46
2021/03/12 06:35:20;;;;;;;1.10;0.80;;;10.90;76.10;;;;;;5131614;27;20068;-43
2021/03/12 06:37:48;;;;;;;1.35;0.60;;;10.90;76.00;;;;;;5133814;28;20051;-44
2021/03/12 06:40:28;;;;;;;1.40;0.63;;;10.90;76.10;;;;;;5134371;27;20101;-46
2021/03/12 06:43:03;;;;;;;2.10;0.80;;;10.90;76.10;;;;;;5117803;27;20058;-50
2021/03/12 06:45:45;;;;;;;2.08;0.73;;;11.00;76.80;;;;;;5130717;27;20142;-43
2021/03/12 06:48:29;;;;;;;2.00;0.98;;;10.90;76.10;;;;;;5112840;28;20048;-48
2021/03/12 06:51:01;;;;;;;2.10;0.80;;;10.90;76.10;;;;;;5133052;28;20050;-40
2021/03/12 06:53:32;;;;;;;1.85;0.90;;;11.00;76.20;;;;;;5132693;28;20538;-45
2021/03/12 06:56:04;;;;;;;1.50;1.17;;;11.00;76.10;;;;;;5132597;27;20406;-41
2021/03/12 06:58:31;;;;;;;0.80;0.63;;;10.90;76.10;;;;;;5116094;28;20055;-49
2021/03/12 07:00:57;;;;;;;2.40;1.05;;;10.90;76.10;;;;;;5134062;27;20058;-49
2021/03/12 07:03:24;;;;;;;1.70;0.73;;;11.00;76.20;;;;;;5129099;27;20434;-39
2021/03/12 07:06:16;;;;;;;1.77;1.00;;;10.90;76.10;;;;;;5106813;28;20052;-43
2021/03/12 07:08:51;;;;;;;1.75;0.77;;;10.90;76.10;;;;;;5129925;28;20047;-45
2021/03/12 07:11:25;;;;;;;1.57;0.70;;;11.00;76.10;;;;;;5127369;28;20048;-41
2021/03/12 07:13:53;;;;;;;0.50;0.50;;;10.90;76.10;;;;;;5121383;27;20289;-42
2021/03/12 07:16:20;;;;;;;1.08;0.57;;;10.90;76.10;;;;;;5128354;27;20047;-43
2021/03/12 07:18:46;;;;;;;0.50;0.50;;;10.90;76.10;;;;;;5126953;27;20483;-41
2021/03/12 07:21:14;;;;;;;1.70;0.70;;;10.90;76.10;;;;;;5132361;27;20118;-43
2021/03/12 07:24:00;;;;;;;1.75;0.70;;;10.90;76.10;;;;;;5117033;27;20539;-42
2021/03/12 07:26:39;;;;;;;1.63;1.00;;;11.00;76.10;;;;;;5120156;28;20043;-40
2021/03/12 07:29:07;;;;;;;1.20;0.70;;;10.90;76.10;;;;;;5120689;28;20487;-43
2021/03/12 07:31:37;;;;;;;0.93;0.60;;;10.90;76.10;;;;;;5117981;27;20044;-43
2021/03/12 07:34:15;;;;;;;1.42;0.88;;;10.90;76.10;;;;;;5111996;28;20044;-42
2021/03/12 07:36:47;;;;;;;1.73;1.02;;;11.00;76.10;;;;;;5112124;28;20090;-40
2021/03/12 07:39:30;;;;;;;1.85;0.90;;;10.90;76.10;;;;;;5124726;27;20049;-52
2021/03/12 07:41:57;;;;;;;2.03;0.82;;;11.00;76.40;;;;;;5130349;27;20066;-56
2021/03/12 07:44:23;;;;;;;10.63;2.88;;;10.90;76.10;;;;;;5134665;27;20043;-50
2021/03/12 07:46:51;;;;;;;8.13;2.63;;;10.90;75.30;;;;;;5136076;27;20068;-45
2021/03/12 07:49:32;;;;;;;9.20;2.33;;;10.80;75.40;;;;;;5136572;27;20545;-54
2021/03/12 07:51:59;;;;;;;4.85;1.88;;;10.80;75.40;;;;;;5115516;28;20134;-44
2021/03/12 07:54:48;;;;;;;5.13;2.08;;;10.90;75.50;;;;;;5113684;28;20059;-46
2021/03/12 07:57:32;;;;;;;6.75;1.98;;;10.80;75.40;;;;;;5113280;27;20040;-46
2021/03/12 08:00:00;;;;;;;5.57;1.80;;;10.90;75.40;;;;;;5115991;27;20046;-53
2021/03/12 08:02:53;;;;;;;7.90;1.88;;;10.90;75.50;;;;;;5118203;27;20047;-39
2021/03/12 08:05:38;;;;;;;8.55;2.70;;;10.80;76.00;;;;;;5125939;27;20518;-41
2021/03/12 08:08:33;;;;;;;5.90;2.00;;;10.90;75.50;;;;;;5116593;27;20495;-45
2021/03/12 08:11:18;;;;;;;5.43;2.25;;;10.90;75.50;;;;;;5117430;27;20100;-60
2021/03/12 08:13:45;;;;;;;5.10;1.67;;;10.80;75.50;;;;;;5125690;27;20793;-46
2021/03/12 08:16:11;;;;;;;6.97;2.20;;;10.90;75.60;;;;;;5119306;27;20407;-45
2021/03/12 08:18:36;;;;;;;5.78;1.73;;;10.90;75.60;;;;;;5119153;27;20043;-59
2021/03/12 08:21:29;;;;;;;4.80;1.80;;;10.90;75.60;;;;;;5122002;27;20081;-51
2021/03/12 08:23:55;;;;;;;8.48;2.55;;;10.90;75.50;;;;;;5115042;27;20044;-53
2021/03/12 08:26:46;;;;;;;5.88;2.03;;;10.90;75.60;;;;;;5115336;28;20384;-42
2021/03/12 08:29:34;;;;;;;3.63;1.60;;;10.90;75.50;;;;;;5114976;28;20062;-47
2021/03/12 08:32:00;;;;;;;4.82;1.67;;;10.90;75.60;;;;;;5113456;27;20043;-43
2021/03/12 08:34:42;;;;;;;4.95;2.10;;;10.90;75.60;;;;;;5119004;27;20044;-41
2021/03/12 08:37:27;;;;;;;7.90;2.05;;;10.90;75.60;;;;;;5130852;27;20052;-56
2021/03/12 08:40:15;;;;;;;6.70;2.05;;;10.90;75.10;;;;;;5114591;28;20043;-46
2021/03/12 08:43:04;;;;;;;6.22;2.63;;;10.90;75.20;;;;;;5112553;27;20047;-45
2021/03/12 08:45:32;;;;;;;8.32;2.33;;;10.90;75.20;;;;;;5130342;27;20055;-43
2021/03/12 08:48:12;;;;;;;6.70;2.35;;;10.90;75.20;;;;;;5135411;27;20054;-43
2021/03/12 08:51:02;;;;;;;5.70;2.25;;;10.90;75.20;;;;;;5121074;27;20130;-45
2021/03/12 08:53:35;;;;;;;5.47;2.35;;;10.90;75.20;;;;;;5114719;27;20044;-42
2021/03/12 08:56:03;;;;;;;6.30;2.38;;;10.90;75.30;;;;;;5122107;27;20047;-44
2021/03/12 08:58:34;;;;;;;4.72;2.33;;;10.90;75.30;;;;;;5127012;27;20089;-40
2021/03/12 09:01:19;;;;;;;6.68;1.90;;;10.90;75.30;;;;;;5123854;27;20051;-42
2021/03/12 09:04:06;;;;;;;5.70;2.03;;;10.90;75.30;;;;;;5115353;27;20487;-40
2021/03/12 09:06:52;;;;;;;4.15;1.50;;;10.90;75.40;;;;;;5123187;27;20047;-43
2021/03/12 09:09:38;;;;;;;5.35;1.80;;;10.90;75.40;;;;;;5123498;27;20045;-47
2021/03/12 09:12:24;;;;;;;3.65;1.52;;;11.00;75.50;;;;;;5121134;27;20046;-40
2021/03/12 09:15:13;;;;;;;4.63;1.38;;;10.90;75.40;;;;;;5120523;27;20055;-46
2021/03/12 09:17:39;;;;;;;6.40;1.65;;;11.00;75.50;;;;;;5110264;27;20716;-42
2021/03/12 09:20:05;;;;;;;3.83;2.22;;;11.00;75.50;;;;;;5115902;27;20047;-43
2021/03/12 09:22:31;;;;;;;3.65;2.15;;;11.00;75.50;;;;;;5113905;28;20468;-42
2021/03/12 09:24:59;;;;;;;2.92;1.35;;;10.90;75.50;;;;;;5113022;28;20491;-44
2021/03/12 09:27:24;;;;;;;2.47;1.60;;;11.00;75.50;;;;;;5113409;28;20074;-40
2021/03/12 09:29:51;;;;;;;4.25;1.48;;;11.00;75.50;;;;;;5113777;28;20052;-40
2021/03/12 09:32:17;;;;;;;3.67;1.60;;;11.00;75.50;;;;;;5113800;28;20052;-40
2021/03/12 09:34:42;;;;;;;3.97;1.48;;;11.00;75.50;;;;;;5113615;28;20044;-41
2021/03/12 09:37:08;;;;;;;3.53;1.35;;;11.00;75.50;;;;;;5113503;28;20032;-41
2021/03/12 09:39:39;;;;;;;3.55;1.67;;;11.00;75.50;;;;;;5113633;28;20047;-44
2021/03/12 09:42:08;;;;;;;3.38;1.63;;;11.00;75.50;;;;;;5112922;28;20136;-51
2021/03/12 09:44:35;;;;;;;3.15;1.20;;;11.00;75.50;;;;;;5116060;27;20438;-45
2021/03/12 09:47:06;;;;;;;4.55;2.05;;;11.00;75.50;;;;;;5131010;27;20058;-43
2021/03/12 09:49:41;;;;;;;2.50;1.20;;;11.00;75.50;;;;;;5117444;27;20407;-43
2021/03/12 09:52:14;;;;;;;3.05;1.52;;;11.00;75.50;;;;;;5113379;28;20517;-46
2021/03/12 09:54:42;;;;;;;2.97;1.30;;;11.00;75.50;;;;;;5113229;28;20040;-42
2021/03/12 09:57:10;;;;;;;5.47;1.17;;;11.10;75.60;;;;;;5132107;27;20061;-39
2021/03/12 09:59:37;;;;;;;1.90;1.05;;;11.00;75.50;;;;;;5133264;27;20048;-41
2021/03/12 10:02:05;;;;;;;3.08;1.60;;;11.00;75.50;;;;;;5128907;27;20130;-42
2021/03/12 10:04:36;;;;;;;2.35;1.45;;;11.00;75.50;;;;;;5133746;27;20091;-45
2021/03/12 10:07:01;;;;;;;1.90;1.15;;;11.10;75.60;;;;;;5132026;27;20042;-41
2021/03/12 10:09:29;;;;;;;3.67;1.20;;;11.10;75.60;;;;;;5133413;27;20050;-41
2021/03/12 10:11:56;;;;;;;2.00;1.30;;;11.10;75.60;;;;;;5121670;27;20040;-41
2021/03/12 10:14:29;;;;;;;1.10;1.00;;;11.10;75.60;;;;;;5123421;27;20051;-41
2021/03/12 10:17:06;;;;;;;2.97;1.55;;;11.10;75.60;;;;;;5121910;27;20083;-42
2021/03/12 10:19:45;;;;;;;4.47;1.58;;;11.10;75.50;;;;;;5124673;27;20450;-40
2021/03/12 10:22:17;;;;;;;2.10;1.10;;;11.10;75.60;;;;;;5122286;27;20055;-42
2021/03/12 10:24:45;;;;;;;2.53;1.10;;;11.10;75.60;;;;;;5121862;27;20483;-42
2021/03/12 10:27:18;;;;;;;2.70;1.15;;;11.00;75.50;;;;;;5121625;27;20057;-42
2021/03/12 10:29:44;;;;;;;3.50;1.10;;;11.10;75.50;;;;;;5122441;27;20058;-42
2021/03/12 10:32:10;;;;;;;1.95;1.05;;;11.10;75.60;;;;;;5121870;27;20051;-45
2021/03/12 10:34:50;;;;;;;2.03;1.05;;;11.10;75.50;;;;;;5124537;27;21026;-46
2021/03/12 10:37:17;;;;;;;2.00;1.20;;;11.20;75.60;;;;;;5112308;28;20702;-44
2021/03/12 10:39:45;;;;;;;1.92;1.10;;;11.10;75.60;;;;;;5112846;28;20074;-40
2021/03/12 10:42:12;;;;;;;2.30;0.82;;;11.10;75.50;;;;;;5129480;28;20045;-41
2021/03/12 10:44:59;;;;;;;1.98;0.93;;;11.10;75.50;;;;;;5127612;27;20050;-40
2021/03/12 10:47:26;;;;;;;2.17;1.23;;;11.10;75.50;;;;;;5128535;27;20108;-42
2021/03/12 10:49:52;;;;;;;1.48;0.80;;;11.10;75.50;;;;;;5131887;28;20520;-41
2021/03/12 10:52:29;;;;;;;2.70;1.02;;;11.10;75.50;;;;;;5133023;27;20058;-42
2021/03/12 10:55:09;;;;;;;1.75;0.98;;;11.20;75.50;;;;;;5124402;27;20072;-39
2021/03/12 10:57:46;;;;;;;2.22;1.20;;;11.10;75.50;;;;;;5111540;28;20040;-44
2021/03/12 11:00:18;;;;;;;3.53;0.95;;;11.20;75.50;;;;;;5113217;28;20040;-47
2021/03/12 11:02:44;;;;;;;1.70;1.13;;;11.20;75.50;;;;;;5112575;28;20047;-39
2021/03/12 11:05:12;;;;;;;1.45;0.85;;;11.20;75.60;;;;;;5119830;28;20049;-40
2021/03/12 11:07:39;;;;;;;2.47;0.88;;;11.20;75.50;;;;;;5131385;28;20075;-45
2021/03/12 11:10:06;;;;;;;1.05;0.90;;;11.20;75.50;;;;;;5113036;28;20048;-42
2021/03/12 11:12:41;;;;;;;1.25;1.15;;;11.20;76.20;;;;;;5112215;28;20048;-43
2021/03/12 11:15:08;;;;;;;1.38;0.90;;;11.20;75.50;;;;;;5112378;28;20044;-43
2021/03/12 11:17:33;;;;;;;1.50;0.95;;;11.10;75.40;;;;;;5115494;28;20044;-39
2021/03/12 11:20:01;;;;;;;1.55;0.70;;;11.20;75.50;;;;;;5116501;28;20099;-46
2021/03/12 11:22:27;;;;;;;2.38;1.05;;;11.20;75.50;;;;;;5123855;27;20083;-43
2021/03/12 11:24:52;;;;;;;2.38;0.80;;;11.20;75.50;;;;;;5127946;27;20059;-46
2021/03/12 11:27:18;;;;;;;1.33;0.80;;;11.20;75.50;;;;;;5124377;27;20050;-41
2021/03/12 11:29:44;;;;;;;0.88;0.70;;;11.10;75.50;;;;;;5118528;27;20381;-44
2021/03/12 11:32:10;;;;;;;1.50;0.90;;;11.20;75.50;;;;;;5116614;28;20054;-40
2021/03/12 11:34:36;;;;;;;2.15;0.77;;;11.20;75.50;;;;;;5116408;28;20040;-43
2021/03/12 11:37:02;;;;;;;1.63;0.90;;;11.20;75.50;;;;;;5115835;27;20484;-46
2021/03/12 11:39:27;;;;;;;1.40;0.80;;;11.20;75.50;;;;;;5131037;27;20070;-44
2021/03/12 11:41:53;;;;;;;3.03;0.90;;;11.20;75.50;;;;;;5132668;27;20040;-42
2021/03/12 11:44:19;;;;;;;1.55;0.88;;;11.20;75.50;;;;;;5131227;27;20047;-43
2021/03/12 11:46:45;;;;;;;2.60;0.95;;;11.20;75.50;;;;;;5136728;27;20489;-43
2021/03/12 11:49:11;;;;;;;1.77;0.80;;;11.20;75.50;;;;;;5136191;27;20051;-39
2021/03/12 11:51:38;;;;;;;1.98;0.90;;;11.20;75.50;;;;;;5136870;27;20043;-41
2021/03/12 11:54:05;;;;;;;1.38;0.90;;;11.20;75.50;;;;;;5136896;27;20051;-43
2021/03/12 11:56:32;;;;;;;1.08;0.70;;;11.20;75.40;;;;;;5121165;27;20052;-43
2021/03/12 11:58:58;;;;;;;3.20;0.95;;;11.20;75.40;;;;;;5121875;27;20040;-41
2021/03/12 12:01:24;;;;;;;1.55;0.90;;;11.20;75.50;;;;;;5127526;27;20043;-42
2021/03/12 12:03:50;;;;;;;1.42;0.68;;;11.20;75.50;;;;;;5132141;27;20047;-44
2021/03/12 12:06:15;;;;;;;1.27;0.70;;;11.20;75.40;;;;;;5116747;27;20050;-44
2021/03/12 12:08:41;;;;;;;1.25;0.70;;;11.30;75.50;;;;;;5121623;27;20075;-44
2021/03/12 12:11:07;;;;;;;2.70;1.00;;;11.30;75.50;;;;;;5136168;27;20455;-43
2021/03/12 12:13:33;;;;;;;0.95;0.70;;;11.20;75.50;;;;;;5136107;27;20051;-47
2021/03/12 12:15:58;;;;;;;0.90;0.57;;;11.20;75.40;;;;;;5136099;27;20072;-45
2021/03/12 12:18:25;;;;;;;2.80;0.93;;;11.20;75.40;;;;;;5136145;27;20402;-44
2021/03/12 12:20:50;;;;;;;2.15;1.00;;;11.30;75.50;;;;;;5127816;27;20077;-44
2021/03/12 12:23:16;;;;;;;0.65;0.63;;;11.30;75.50;;;;;;5127412;27;20039;-47
2021/03/12 12:25:42;;;;;;;1.00;0.75;;;11.30;75.50;;;;;;5135820;27;20047;-39
2021/03/12 12:28:09;;;;;;;0.55;0.52;;;11.30;75.50;;;;;;5136600;27;20047;-45
2021/03/12 12:30:36;;;;;;;1.80;1.13;;;11.30;75.50;;;;;;5135140;27;20046;-44
2021/03/12 12:33:02;;;;;;;2.08;0.90;;;11.30;75.50;;;;;;5135927;27;20054;-45
2021/03/12 12:35:28;;;;;;;0.80;0.70;;;11.30;75.50;;;;;;5136010;27;20441;-44
2021/03/12 12:37:54;;;;;;;2.53;0.90;;;11.30;75.50;;;;;;5135871;27;20177;-47
2021/03/12 12:40:21;;;;;;;1.75;0.98;;;11.30;75.50;;;;;;5135711;27;20059;-45
2021/03/12 12:42:48;;;;;;;1.50;0.70;;;11.20;75.40;;;;;;5127378;27;20047;-52
2021/03/12 12:45:15;;;;;;;1.45;0.98;;;11.30;75.60;;;;;;5118908;27;20039;-43
2021/03/12 12:47:42;;;;;;;0.95;0.70;;;11.30;75.50;;;;;;5124471;27;20043;-41
2021/03/12 12:50:08;;;;;;;0.80;0.80;;;11.30;75.50;;;;;;5117070;27;20447;-42
2021/03/12 12:52:34;;;;;;;2.47;0.95;;;11.30;75.50;;;;;;5115400;27;20054;-40
2021/03/12 12:55:01;;;;;;;1.55;0.82;;;11.30;75.50;;;;;;5134732;27;20043;-40
2021/03/12 12:57:26;;;;;;;1.17;0.70;;;11.30;75.50;;;;;;5134585;27;20097;-45
2021/03/12 12:59:52;;;;;;;0.70;0.60;;;11.30;75.50;;;;;;5134418;27;20478;-41